Time;durP1;ratioP1;P1;durP2;ratioP2;P2;SDS_P1;SDS_P2;PMS_P1;PMS_P2;Temp;Humidity;BMP_temperature;BMP_pressure;BME280_temperature;BME280_humidity;BME280_pressure;Samples;Min_cycle;Max_cycle;Signal;HPM_P1;HPM_P2
2023/08/27 00:02:11;;;;;;;23.08;20.77;;;12.90;99.90;;;;;;5013825;28;20059;-65
2023/08/27 00:04:37;;;;;;;23.77;21.20;;;12.90;99.90;;;;;;4997469;28;20222;-64
2023/08/27 00:07:03;;;;;;;22.85;20.65;;;12.80;99.90;;;;;;4997275;28;20111;-64
2023/08/27 00:09:29;;;;;;;23.55;21.10;;;12.80;99.90;;;;;;5013486;28;20326;-64
2023/08/27 00:11:54;;;;;;;25.05;22.50;;;12.70;99.90;;;;;;4997635;28;20076;-64
2023/08/27 00:14:20;;;;;;;23.15;20.95;;;12.80;99.90;;;;;;5013743;28;20045;-64
2023/08/27 00:16:46;;;;;;;24.13;21.77;;;12.70;99.90;;;;;;5013865;28;20041;-63
2023/08/27 00:19:11;;;;;;;24.63;22.05;;;12.80;99.90;;;;;;4997281;28;20702;-64
2023/08/27 00:21:37;;;;;;;26.08;23.30;;;12.70;99.90;;;;;;5012877;28;20676;-64
2023/08/27 00:24:04;;;;;;;25.17;22.65;;;12.80;99.90;;;;;;4997169;28;20134;-64
2023/08/27 00:26:29;;;;;;;26.10;23.52;;;12.80;99.90;;;;;;5012797;28;21442;-64
2023/08/27 00:28:55;;;;;;;25.92;23.42;;;12.90;99.90;;;;;;5034540;28;20492;-64
2023/08/27 00:31:21;;;;;;;28.33;23.75;;;12.70;99.90;;;;;;5016909;28;20595;-64
2023/08/27 00:33:47;;;;;;;25.90;23.38;;;12.90;99.90;;;;;;5015166;28;20053;-65
2023/08/27 00:36:12;;;;;;;26.92;24.10;;;12.90;99.90;;;;;;5017314;28;20037;-65
2023/08/27 00:38:38;;;;;;;26.70;23.80;;;12.70;99.90;;;;;;4983397;28;20045;-65
2023/08/27 00:41:04;;;;;;;27.80;24.75;;;12.70;99.90;;;;;;5017426;28;20519;-65
2023/08/27 00:43:29;;;;;;;30.33;24.88;;;12.70;99.90;;;;;;5016970;28;20043;-66
2023/08/27 00:45:56;;;;;;;27.38;24.58;;;12.70;99.90;;;;;;5016720;28;20107;-65
2023/08/27 00:48:21;;;;;;;27.63;24.77;;;12.80;99.90;;;;;;4998007;28;20052;-66
2023/08/27 00:50:48;;;;;;;28.25;25.45;;;13.00;99.90;;;;;;4983818;28;20204;-65
2023/08/27 00:53:15;;;;;;;30.35;26.65;;;12.90;99.90;;;;;;4977545;28;20049;-66
2023/08/27 00:55:41;;;;;;;29.85;26.70;;;13.00;99.90;;;;;;5016252;28;20041;-65
2023/08/27 00:58:06;;;;;;;30.60;27.08;;;13.00;99.90;;;;;;5016950;28;20051;-66
2023/08/27 01:00:32;;;;;;;30.33;26.25;;;12.80;99.90;;;;;;4984050;28;20496;-66
2023/08/27 01:02:58;;;;;;;30.27;26.98;;;12.70;99.90;;;;;;5015873;28;20430;-65
2023/08/27 01:05:25;;;;;;;29.00;25.60;;;13.00;99.90;;;;;;5016572;28;20560;-65
2023/08/27 01:07:59;;;;;;;29.55;26.38;;;12.80;99.90;;;;;;5014606;28;20045;-65
2023/08/27 01:10:37;;;;;;;29.38;26.40;;;12.70;99.90;;;;;;5016859;28;20053;-66
2023/08/27 01:13:04;;;;;;;29.33;26.23;;;12.80;99.90;;;;;;4999594;28;20041;-65
2023/08/27 01:15:31;;;;;;;29.80;26.73;;;12.70;99.90;;;;;;5015645;28;20342;-66
2023/08/27 01:17:59;;;;;;;29.98;26.88;;;12.70;99.90;;;;;;5016089;28;20499;-66
2023/08/27 01:20:25;;;;;;;31.60;27.95;;;12.70;99.90;;;;;;5016106;28;20041;-65
2023/08/27 01:22:51;;;;;;;30.70;27.48;;;12.80;99.90;;;;;;4999092;28;20045;-66
2023/08/27 01:25:20;;;;;;;30.50;26.98;;;12.70;99.90;;;;;;5034159;28;20041;-65
2023/08/27 01:28:14;;;;;;;30.80;27.45;;;12.70;99.90;;;;;;5015376;28;20055;-65
2023/08/27 01:30:48;;;;;;;30.52;27.42;;;13.00;99.90;;;;;;5008626;28;20057;-65
2023/08/27 01:33:18;;;;;;;31.20;27.13;;;12.90;99.90;;;;;;5015474;28;20136;-66
2023/08/27 01:35:45;;;;;;;29.60;26.50;;;12.70;99.90;;;;;;5015595;28;20049;-65
2023/08/27 01:38:12;;;;;;;29.40;26.42;;;12.70;99.90;;;;;;4998651;28;20080;-65
2023/08/27 01:40:40;;;;;;;29.65;26.58;;;12.80;99.90;;;;;;5015548;28;20056;-65
2023/08/27 01:43:06;;;;;;;29.83;26.63;;;12.90;99.90;;;;;;4999116;28;20498;-65
2023/08/27 01:45:32;;;;;;;31.48;28.02;;;12.80;99.90;;;;;;4999020;28;20131;-65
2023/08/27 01:47:58;;;;;;;32.47;28.30;;;12.80;99.90;;;;;;4998771;28;20325;-65
2023/08/27 01:50:23;;;;;;;30.58;27.50;;;13.00;99.90;;;;;;5010692;28;20221;-65
2023/08/27 01:52:49;;;;;;;31.95;28.02;;;12.70;99.90;;;;;;5015185;28;20087;-66
2023/08/27 01:55:15;;;;;;;30.38;27.15;;;12.60;99.90;;;;;;4984216;28;20272;-65
2023/08/27 01:57:41;;;;;;;28.58;25.58;;;12.80;99.90;;;;;;5015926;28;20315;-65
2023/08/27 02:00:09;;;;;;;28.15;25.42;;;13.00;99.90;;;;;;5015549;28;20120;-66
2023/08/27 02:02:38;;;;;;;26.55;23.85;;;12.70;99.90;;;;;;5015164;28;20277;-65
2023/08/27 02:05:07;;;;;;;27.98;25.38;;;12.80;99.90;;;;;;5015545;28;20083;-65
2023/08/27 02:07:36;;;;;;;26.13;23.73;;;13.00;99.90;;;;;;4998575;28;20792;-66
2023/08/27 02:10:03;;;;;;;26.05;23.48;;;12.70;99.90;;;;;;4999590;28;20658;-65
2023/08/27 02:12:29;;;;;;;27.42;24.63;;;12.90;99.90;;;;;;5014764;28;20055;-66
2023/08/27 02:14:54;;;;;;;28.00;25.25;;;12.70;99.90;;;;;;5014974;28;20049;-65
2023/08/27 02:17:20;;;;;;;25.27;22.80;;;12.70;99.90;;;;;;5015064;28;20048;-65
2023/08/27 02:19:46;;;;;;;26.02;23.23;;;12.60;99.90;;;;;;5015069;28;20110;-66
2023/08/27 02:22:11;;;;;;;26.75;24.08;;;12.50;99.90;;;;;;4998263;28;20053;-65
2023/08/27 02:24:37;;;;;;;27.67;24.15;;;12.60;99.90;;;;;;5033655;28;20041;-65
2023/08/27 02:27:03;;;;;;;27.27;23.60;;;12.90;99.90;;;;;;5015160;28;20055;-65
2023/08/27 02:29:29;;;;;;;25.17;22.58;;;12.80;99.90;;;;;;5015119;28;20103;-65
2023/08/27 02:31:55;;;;;;;25.67;23.08;;;12.90;99.90;;;;;;4998000;28;20041;-65
2023/08/27 02:34:21;;;;;;;25.65;23.00;;;12.60;99.90;;;;;;5014778;28;20408;-66
2023/08/27 02:36:47;;;;;;;25.88;23.13;;;12.90;99.90;;;;;;4997583;28;20375;-65
2023/08/27 02:39:12;;;;;;;26.08;23.35;;;12.90;99.90;;;;;;4996946;28;20045;-65
2023/08/27 02:41:38;;;;;;;24.85;22.33;;;12.70;99.90;;;;;;4998397;28;20128;-65
2023/08/27 02:44:05;;;;;;;24.75;22.23;;;12.90;99.90;;;;;;5014802;28;20511;-65
2023/08/27 02:46:31;;;;;;;25.33;22.80;;;12.90;99.90;;;;;;4998521;28;20348;-65
2023/08/27 02:48:57;;;;;;;24.95;22.05;;;12.80;99.90;;;;;;4981946;28;20106;-65
2023/08/27 02:51:23;;;;;;;24.17;21.63;;;12.60;99.90;;;;;;5013907;28;20074;-66
2023/08/27 02:53:51;;;;;;;24.35;21.75;;;12.70;99.90;;;;;;4993683;28;20464;-66
2023/08/27 02:56:18;;;;;;;25.65;22.23;;;12.60;99.90;;;;;;5015272;28;20041;-65
2023/08/27 02:58:43;;;;;;;25.98;23.00;;;12.60;99.90;;;;;;5032663;28;20072;-65
2023/08/27 03:01:15;;;;;;;24.73;21.60;;;12.70;99.90;;;;;;5014422;28;20151;-65
2023/08/27 03:03:42;;;;;;;23.75;21.35;;;12.90;99.90;;;;;;5014450;28;20052;-65
2023/08/27 03:06:08;;;;;;;24.55;21.45;;;12.60;99.90;;;;;;5032188;28;20912;-65
2023/08/27 03:08:33;;;;;;;22.13;19.77;;;12.70;99.90;;;;;;4997929;28;20197;-65
2023/08/27 03:10:59;;;;;;;24.02;21.52;;;12.80;99.90;;;;;;4996999;28;20054;-65
2023/08/27 03:13:25;;;;;;;23.80;21.35;;;12.60;99.90;;;;;;5013774;28;20053;-65
2023/08/27 03:15:50;;;;;;;24.17;21.73;;;12.50;99.90;;;;;;5013600;28;20048;-65
2023/08/27 03:18:16;;;;;;;25.63;21.95;;;12.50;99.90;;;;;;4997476;28;20116;-64
2023/08/27 03:20:42;;;;;;;24.58;22.00;;;12.70;99.90;;;;;;4997102;28;20330;-64
2023/08/27 03:23:07;;;;;;;25.88;23.10;;;12.50;99.90;;;;;;5032074;28;20130;-64
2023/08/27 03:25:33;;;;;;;24.48;21.88;;;12.50;99.90;;;;;;5013635;28;20093;-64
2023/08/27 03:27:59;;;;;;;23.45;21.15;;;12.60;99.90;;;;;;5014057;28;20056;-68
2023/08/27 03:30:24;;;;;;;23.50;21.10;;;12.70;99.90;;;;;;5031733;28;20041;-65
2023/08/27 03:32:50;;;;;;;24.35;21.83;;;12.80;99.90;;;;;;5013296;28;20041;-64
2023/08/27 03:35:16;;;;;;;25.23;22.33;;;12.60;99.90;;;;;;4996897;28;20310;-66
2023/08/27 03:37:42;;;;;;;24.25;21.92;;;12.50;99.90;;;;;;5031632;28;20087;-64
2023/08/27 03:40:08;;;;;;;26.77;24.00;;;12.70;99.90;;;;;;4997434;28;20296;-65
2023/08/27 03:42:34;;;;;;;24.90;22.40;;;12.70;99.90;;;;;;5013236;28;20487;-65
2023/08/27 03:45:00;;;;;;;24.58;22.13;;;12.80;99.90;;;;;;5013521;28;20293;-65
2023/08/27 03:47:26;;;;;;;25.08;22.60;;;12.80;99.90;;;;;;5013356;28;20049;-65
2023/08/27 03:49:52;;;;;;;25.33;22.67;;;12.50;99.90;;;;;;5031473;28;20051;-65
2023/08/27 03:52:18;;;;;;;25.17;22.58;;;12.60;99.90;;;;;;5031698;28;20048;-65
2023/08/27 03:54:44;;;;;;;25.92;23.27;;;12.80;99.90;;;;;;5012908;28;20562;-65
2023/08/27 03:57:10;;;;;;;24.35;21.95;;;12.80;99.90;;;;;;5012205;28;20051;-65
2023/08/27 03:59:35;;;;;;;23.73;21.50;;;12.60;99.90;;;;;;4983628;28;20428;-65
2023/08/27 04:02:01;;;;;;;25.40;22.88;;;12.60;99.90;;;;;;5012190;28;20057;-67
2023/08/27 04:04:27;;;;;;;24.38;21.92;;;12.50;99.90;;;;;;5012804;28;20060;-65
2023/08/27 04:06:54;;;;;;;24.98;22.63;;;12.50;99.90;;;;;;5031013;28;20672;-66
2023/08/27 04:09:20;;;;;;;24.10;21.58;;;12.70;99.90;;;;;;4997318;28;20037;-65
2023/08/27 04:11:46;;;;;;;24.52;22.13;;;12.60;99.90;;;;;;5012621;28;20288;-66
2023/08/27 04:14:12;;;;;;;24.70;22.20;;;12.70;99.90;;;;;;4980465;28;20045;-65
2023/08/27 04:16:38;;;;;;;25.88;23.23;;;12.50;99.90;;;;;;5012724;28;20722;-66
2023/08/27 04:19:04;;;;;;;25.60;23.10;;;12.70;99.90;;;;;;5031332;28;20067;-65
2023/08/27 04:21:30;;;;;;;24.98;22.48;;;12.50;99.90;;;;;;4996457;28;20671;-66
2023/08/27 04:23:55;;;;;;;24.80;22.33;;;12.70;99.90;;;;;;5013686;28;20053;-64
2023/08/27 04:26:22;;;;;;;25.38;22.85;;;12.40;99.90;;;;;;5013025;28;20080;-64
2023/08/27 04:28:50;;;;;;;25.13;22.63;;;12.70;99.90;;;;;;5013351;28;20052;-65
2023/08/27 04:31:17;;;;;;;25.98;23.42;;;12.70;99.90;;;;;;5013041;28;20044;-65
2023/08/27 04:33:43;;;;;;;25.48;22.98;;;12.70;99.90;;;;;;4994713;28;20491;-65
2023/08/27 04:36:09;;;;;;;23.80;21.40;;;12.50;99.90;;;;;;5013195;28;20033;-64
2023/08/27 04:38:34;;;;;;;23.83;21.45;;;12.60;99.90;;;;;;4996715;28;20593;-64
2023/08/27 04:41:00;;;;;;;23.33;21.05;;;12.70;99.90;;;;;;5012348;28;20068;-65
2023/08/27 04:43:26;;;;;;;22.83;20.63;;;12.70;99.90;;;;;;5030348;28;20135;-64
2023/08/27 04:45:53;;;;;;;20.90;18.80;;;12.70;99.90;;;;;;5031189;28;20909;-64
2023/08/27 04:48:19;;;;;;;20.75;18.70;;;12.50;99.90;;;;;;5030347;28;21235;-64
2023/08/27 04:50:46;;;;;;;19.13;17.27;;;12.50;99.90;;;;;;5013128;28;20446;-64
2023/08/27 04:53:12;;;;;;;20.67;18.65;;;12.80;99.90;;;;;;5030661;28;20061;-64
2023/08/27 04:55:38;;;;;;;19.98;18.13;;;12.60;99.90;;;;;;5012154;28;20245;-64
2023/08/27 04:58:04;;;;;;;20.17;18.25;;;13.00;99.90;;;;;;5012772;28;20634;-64
2023/08/27 05:00:31;;;;;;;19.75;17.75;;;12.90;99.90;;;;;;5012752;28;20119;-65
2023/08/27 05:02:57;;;;;;;18.40;16.50;;;12.80;99.90;;;;;;5030580;28;20064;-64
2023/08/27 05:05:23;;;;;;;18.17;16.38;;;13.00;99.90;;;;;;5030425;28;20499;-64
2023/08/27 05:07:48;;;;;;;18.23;16.38;;;13.00;99.90;;;;;;5011996;28;20061;-64
2023/08/27 05:10:14;;;;;;;18.40;16.23;;;13.10;99.90;;;;;;5012487;28;20355;-64
2023/08/27 05:12:40;;;;;;;16.77;15.38;;;13.20;99.90;;;;;;4995881;28;20123;-65
2023/08/27 05:15:06;;;;;;;17.33;15.52;;;13.00;99.90;;;;;;4999414;28;20342;-65
2023/08/27 05:17:32;;;;;;;16.95;15.32;;;13.30;99.90;;;;;;5033046;28;20653;-64
2023/08/27 05:19:58;;;;;;;17.02;15.43;;;13.10;99.90;;;;;;5015190;28;20282;-64
2023/08/27 05:22:23;;;;;;;16.00;14.60;;;13.20;99.90;;;;;;5015708;28;20040;-64
2023/08/27 05:24:49;;;;;;;15.85;14.20;;;13.00;99.90;;;;;;4999840;28;20277;-64
2023/08/27 05:27:15;;;;;;;16.58;15.05;;;13.10;99.90;;;;;;5016431;28;20041;-64
2023/08/27 05:29:41;;;;;;;16.40;14.80;;;13.20;99.90;;;;;;5015896;28;20565;-64
2023/08/27 05:32:07;;;;;;;17.85;16.25;;;13.20;99.90;;;;;;5015421;28;20980;-64
2023/08/27 05:34:32;;;;;;;17.40;15.60;;;12.90;99.90;;;;;;5016422;28;20684;-64
2023/08/27 05:36:58;;;;;;;17.65;15.80;;;13.00;99.90;;;;;;5016085;28;20406;-64
2023/08/27 05:39:24;;;;;;;16.35;14.75;;;12.90;99.90;;;;;;5016233;28;20049;-65
2023/08/27 05:41:50;;;;;;;15.57;14.27;;;13.00;99.90;;;;;;5032951;28;20052;-65
2023/08/27 05:44:17;;;;;;;16.67;15.15;;;13.00;99.90;;;;;;5015602;28;20175;-64
2023/08/27 05:46:42;;;;;;;15.38;14.07;;;12.90;99.90;;;;;;5015961;28;20145;-63
2023/08/27 05:49:08;;;;;;;15.05;13.48;;;13.10;99.90;;;;;;5015279;28;20045;-65
2023/08/27 05:51:34;;;;;;;14.75;13.40;;;12.90;99.90;;;;;;5015021;28;20693;-64
2023/08/27 05:53:59;;;;;;;14.32;13.02;;;13.10;99.90;;;;;;4982557;28;20110;-64
2023/08/27 05:56:27;;;;;;;13.50;12.13;;;13.00;99.90;;;;;;4999257;28;20140;-64
2023/08/27 05:58:53;;;;;;;13.45;12.13;;;13.10;99.90;;;;;;5033497;28;20041;-64
2023/08/27 06:01:19;;;;;;;12.45;11.30;;;13.10;99.90;;;;;;4997363;28;20040;-64
2023/08/27 06:03:45;;;;;;;11.00;9.80;;;13.20;99.90;;;;;;5014843;28;20122;-64
2023/08/27 06:06:10;;;;;;;12.35;10.32;;;13.20;99.90;;;;;;5015275;28;20053;-64
2023/08/27 06:08:36;;;;;;;11.05;10.15;;;13.30;99.90;;;;;;4982791;28;20581;-64
2023/08/27 06:11:04;;;;;;;11.45;10.35;;;13.50;99.90;;;;;;5014904;28;20080;-64
2023/08/27 06:13:30;;;;;;;10.00;9.13;;;13.60;99.90;;;;;;5013980;28;20064;-64
2023/08/27 06:15:56;;;;;;;9.07;8.35;;;13.90;99.90;;;;;;5015508;28;20076;-64
2023/08/27 06:18:22;;;;;;;8.00;7.20;;;14.10;99.90;;;;;;5033475;28;20081;-64
2023/08/27 06:20:48;;;;;;;7.38;6.68;;;14.90;99.90;;;;;;5014940;28;20120;-63
2023/08/27 06:23:14;;;;;;;7.18;6.50;;;15.30;99.90;;;;;;5033752;28;20060;-63
2023/08/27 06:25:40;;;;;;;6.80;6.22;;;15.30;99.90;;;;;;5014048;28;20053;-63
2023/08/27 06:28:07;;;;;;;6.07;5.40;;;15.50;99.90;;;;;;5032938;28;20303;-63
2023/08/27 06:30:33;;;;;;;5.70;5.20;;;15.50;99.90;;;;;;4998384;28;20526;-64
2023/08/27 06:32:59;;;;;;;6.32;5.38;;;15.60;99.90;;;;;;5014589;28;20060;-64
2023/08/27 06:35:24;;;;;;;6.32;5.80;;;15.50;99.90;;;;;;4998402;28;20446;-64
2023/08/27 06:37:50;;;;;;;6.25;5.65;;;15.50;99.90;;;;;;5014698;28;20339;-63
2023/08/27 06:40:16;;;;;;;6.55;5.53;;;15.20;99.90;;;;;;5032032;28;20073;-63
2023/08/27 06:42:42;;;;;;;6.45;5.20;;;15.20;99.90;;;;;;4979587;28;20267;-63
2023/08/27 06:45:08;;;;;;;6.13;5.60;;;15.00;99.90;;;;;;5014794;28;20064;-64
2023/08/27 06:47:34;;;;;;;6.68;5.90;;;15.00;99.90;;;;;;5014591;28;20057;-65
2023/08/27 06:50:00;;;;;;;6.38;5.88;;;15.10;99.90;;;;;;5032251;28;20522;-63
2023/08/27 06:52:26;;;;;;;7.18;5.47;;;15.20;99.90;;;;;;4989083;28;20049;-65
2023/08/27 06:54:51;;;;;;;6.10;5.60;;;15.10;99.90;;;;;;5014320;28;20072;-64
2023/08/27 06:57:17;;;;;;;6.95;6.30;;;15.00;99.90;;;;;;4998164;28;20499;-65
2023/08/27 06:59:43;;;;;;;6.88;6.18;;;15.00;99.90;;;;;;4997865;28;20242;-64
2023/08/27 07:02:09;;;;;;;6.25;5.65;;;14.90;99.90;;;;;;5014317;28;20051;-65
2023/08/27 07:04:35;;;;;;;6.85;6.18;;;14.90;99.90;;;;;;5013700;28;20048;-64
2023/08/27 07:07:01;;;;;;;7.13;6.43;;;14.70;99.90;;;;;;5032292;28;20061;-64
2023/08/27 07:09:27;;;;;;;9.27;7.43;;;14.60;99.90;;;;;;5032451;28;20037;-64
2023/08/27 07:11:53;;;;;;;7.88;7.07;;;14.70;99.90;;;;;;4996876;28;20044;-64
2023/08/27 07:14:31;;;;;;;11.68;7.82;;;14.70;99.90;;;;;;5013811;28;20040;-65
2023/08/27 07:16:57;;;;;;;8.07;7.28;;;14.70;99.90;;;;;;5013980;28;20040;-65
2023/08/27 07:19:23;;;;;;;9.18;7.70;;;14.60;99.90;;;;;;4990549;28;20067;-65
2023/08/27 07:21:48;;;;;;;9.85;8.35;;;14.30;99.90;;;;;;5014032;28;20725;-66
2023/08/27 07:24:14;;;;;;;8.88;7.97;;;14.40;99.90;;;;;;5032035;28;20053;-64
2023/08/27 07:26:40;;;;;;;13.02;9.50;;;14.40;99.90;;;;;;5014083;28;20052;-64
2023/08/27 07:29:06;;;;;;;9.38;8.48;;;14.30;99.90;;;;;;5012918;28;20114;-65
2023/08/27 07:31:31;;;;;;;12.30;8.38;;;14.20;99.90;;;;;;5013203;28;20037;-64
2023/08/27 07:33:57;;;;;;;13.23;8.80;;;14.20;99.90;;;;;;5031135;28;20131;-64
2023/08/27 07:36:23;;;;;;;8.98;7.60;;;14.10;99.90;;;;;;5013233;28;20500;-64
2023/08/27 07:38:49;;;;;;;9.18;6.22;;;14.10;99.90;;;;;;5012783;28;20156;-64
2023/08/27 07:41:14;;;;;;;9.50;7.10;;;14.10;99.90;;;;;;4996836;28;20545;-64
2023/08/27 07:43:40;;;;;;;8.10;6.60;;;14.30;99.90;;;;;;5013463;28;20419;-64
2023/08/27 07:46:06;;;;;;;8.77;6.75;;;14.30;99.90;;;;;;4996699;28;20406;-64
2023/08/27 07:48:32;;;;;;;8.45;6.50;;;14.30;99.90;;;;;;5013533;28;20049;-64
2023/08/27 07:50:58;;;;;;;6.97;6.10;;;14.30;99.90;;;;;;4997330;28;20037;-64
2023/08/27 07:53:24;;;;;;;9.50;7.10;;;14.30;99.90;;;;;;4984512;28;20812;-64
2023/08/27 07:55:51;;;;;;;6.75;6.10;;;14.30;99.90;;;;;;5012709;28;20040;-65
2023/08/27 07:58:16;;;;;;;7.43;6.63;;;14.10;99.90;;;;;;5031079;28;20041;-64
2023/08/27 08:00:42;;;;;;;6.90;5.85;;;14.10;99.90;;;;;;5013238;28;20219;-64
2023/08/27 08:03:08;;;;;;;6.15;5.55;;;14.30;99.90;;;;;;5013697;28;20036;-64
2023/08/27 08:05:34;;;;;;;9.38;5.68;;;14.20;99.90;;;;;;5013370;28;20253;-65
2023/08/27 08:08:00;;;;;;;5.55;4.80;;;14.30;99.90;;;;;;5013355;28;20067;-65
2023/08/27 08:10:25;;;;;;;7.13;5.18;;;14.30;99.90;;;;;;5012279;28;20049;-65
2023/08/27 08:12:52;;;;;;;4.60;4.20;;;14.50;99.90;;;;;;4996802;28;20049;-65
2023/08/27 08:15:18;;;;;;;4.53;3.85;;;14.50;99.90;;;;;;4996586;28;20040;-64
2023/08/27 08:17:44;;;;;;;4.70;3.35;;;14.50;99.90;;;;;;5013265;28;20340;-65
2023/08/27 08:20:11;;;;;;;3.85;2.47;;;14.60;99.90;;;;;;5014688;28;20131;-64
2023/08/27 08:22:38;;;;;;;3.58;2.17;;;14.90;99.90;;;;;;5031367;28;20131;-64
2023/08/27 08:25:04;;;;;;;3.38;1.48;;;15.00;99.90;;;;;;4997735;28;20505;-65
2023/08/27 08:27:30;;;;;;;2.55;1.13;;;15.20;99.90;;;;;;5013578;28;20821;-64
2023/08/27 08:29:55;;;;;;;2.28;1.20;;;15.20;99.90;;;;;;5013462;28;20040;-64
2023/08/27 08:32:21;;;;;;;2.28;0.43;;;15.40;99.90;;;;;;4996344;28;20361;-64
2023/08/27 08:34:47;;;;;;;1.55;0.32;;;15.40;99.90;;;;;;4987671;28;20076;-65
2023/08/27 08:37:13;;;;;;;2.17;0.50;;;15.80;99.90;;;;;;5031270;28;20044;-65
2023/08/27 08:39:38;;;;;;;1.65;0.40;;;16.50;99.90;;;;;;4993842;28;20511;-64
2023/08/27 08:42:36;;;;;;;0.93;0.30;;;16.90;99.90;;;;;;5010696;28;20045;-64
2023/08/27 08:45:13;;;;;;;1.63;0.40;;;17.30;99.90;;;;;;5007180;28;20067;-65
2023/08/27 08:47:39;;;;;;;0.88;0.40;;;17.80;99.90;;;;;;5012416;28;20037;-64
2023/08/27 08:50:08;;;;;;;1.30;0.40;;;18.10;99.90;;;;;;5016450;28;20789;-65
2023/08/27 08:52:40;;;;;;;1.40;0.40;;;18.30;99.90;;;;;;5032981;28;20585;-64
2023/08/27 08:55:10;;;;;;;2.20;0.43;;;18.60;99.90;;;;;;5035368;28;20102;-65
2023/08/27 08:57:43;;;;;;;2.45;0.60;;;18.70;99.90;;;;;;4999844;28;20043;-65
2023/08/27 09:00:11;;;;;;;2.45;0.60;;;18.80;99.90;;;;;;5016905;28;20037;-65
2023/08/27 09:02:38;;;;;;;1.60;0.68;;;18.80;99.90;;;;;;4999990;28;20498;-65
2023/08/27 09:05:05;;;;;;;2.03;0.60;;;19.10;99.90;;;;;;5016354;28;20696;-65
2023/08/27 09:07:33;;;;;;;1.77;0.65;;;19.40;99.90;;;;;;4982206;28;20056;-63
2023/08/27 09:10:00;;;;;;;1.60;0.52;;;19.60;99.90;;;;;;5015640;28;20045;-65
2023/08/27 09:12:27;;;;;;;2.45;0.50;;;19.80;99.90;;;;;;5015490;28;20049;-64
2023/08/27 09:14:54;;;;;;;2.03;0.50;;;19.80;99.90;;;;;;5033783;28;20188;-64
2023/08/27 09:17:27;;;;;;;1.98;0.40;;;20.30;99.90;;;;;;4999903;28;20040;-64
2023/08/27 09:19:53;;;;;;;3.28;0.50;;;20.50;99.90;;;;;;5034151;28;20257;-65
2023/08/27 09:22:19;;;;;;;2.47;0.50;;;20.70;99.90;;;;;;5015763;28;20093;-65
2023/08/27 09:24:46;;;;;;;2.83;0.40;;;20.90;99.90;;;;;;5033237;28;20043;-65
2023/08/27 09:27:15;;;;;;;2.78;0.40;;;20.90;99.90;;;;;;5008158;28;20075;-65
2023/08/27 09:29:42;;;;;;;3.50;0.45;;;20.90;99.90;;;;;;5014467;28;20064;-64
2023/08/27 09:32:22;;;;;;;1.05;0.40;;;20.70;99.90;;;;;;5014846;28;20292;-65
2023/08/27 09:34:48;;;;;;;1.30;0.30;;;20.60;99.90;;;;;;5029671;28;20578;-64
2023/08/27 09:37:14;;;;;;;1.85;0.30;;;20.30;99.90;;;;;;5015756;28;20461;-63
2023/08/27 09:39:42;;;;;;;1.40;0.40;;;19.90;99.90;;;;;;5033731;28;20036;-64
2023/08/27 09:42:11;;;;;;;0.88;0.30;;;19.90;99.90;;;;;;5006604;28;20043;-65
2023/08/27 09:44:37;;;;;;;2.35;0.40;;;20.50;99.90;;;;;;5012430;28;20049;-65
2023/08/27 09:47:05;;;;;;;1.70;0.45;;;20.70;99.90;;;;;;5000859;28;20057;-64
2023/08/27 09:49:30;;;;;;;1.50;0.40;;;20.30;99.90;;;;;;5021584;28;20052;-64
2023/08/27 09:51:58;;;;;;;1.15;0.30;;;20.40;99.90;;;;;;5000991;28;20041;-64
2023/08/27 09:54:29;;;;;;;1.20;0.30;;;20.70;99.90;;;;;;5017646;28;20462;-64
2023/08/27 09:56:59;;;;;;;2.60;0.40;;;20.50;99.90;;;;;;5017296;28;20679;-64
2023/08/27 09:59:26;;;;;;;1.92;0.30;;;20.60;99.90;;;;;;4999301;28;20064;-64
2023/08/27 10:01:52;;;;;;;1.00;0.40;;;21.20;99.90;;;;;;5016935;28;20351;-64
2023/08/27 10:04:20;;;;;;;1.85;0.40;;;21.60;99.90;;;;;;4985173;28;20105;-64
2023/08/27 10:06:47;;;;;;;0.73;0.30;;;21.80;99.90;;;;;;5034826;28;20080;-65
2023/08/27 10:09:14;;;;;;;0.82;0.30;;;21.50;99.90;;;;;;5001234;28;20041;-64
2023/08/27 10:11:44;;;;;;;1.05;0.30;;;21.90;99.90;;;;;;5017761;28;20044;-64
2023/08/27 10:14:15;;;;;;;1.10;0.30;;;21.80;99.90;;;;;;5016468;28;21179;-64
2023/08/27 10:16:41;;;;;;;0.57;0.30;;;21.60;99.90;;;;;;4999388;28;20041;-64
2023/08/27 10:19:08;;;;;;;1.05;0.45;;;21.60;99.90;;;;;;5017324;28;20699;-64
2023/08/27 10:21:35;;;;;;;0.77;0.30;;;21.30;99.90;;;;;;5034453;28;20128;-65
2023/08/27 10:24:02;;;;;;;1.10;0.40;;;21.10;99.90;;;;;;5017554;28;20059;-64
2023/08/27 10:26:28;;;;;;;1.00;0.30;;;21.20;99.90;;;;;;5033506;28;20048;-64
2023/08/27 10:28:55;;;;;;;0.85;0.30;;;21.30;99.90;;;;;;5034529;28;20187;-64
2023/08/27 10:31:21;;;;;;;0.77;0.40;;;21.40;99.90;;;;;;5016210;28;20048;-64
2023/08/27 10:33:47;;;;;;;1.25;0.43;;;21.90;99.90;;;;;;5016460;28;20834;-65
2023/08/27 10:36:20;;;;;;;1.00;0.30;;;22.20;99.90;;;;;;5034719;28;20049;-64
2023/08/27 10:38:48;;;;;;;1.00;0.40;;;22.50;93.10;;;;;;5016603;28;20049;-64
2023/08/27 10:41:21;;;;;;;0.73;0.30;;;23.10;99.90;;;;;;5015696;28;20238;-64
2023/08/27 10:43:47;;;;;;;1.48;0.30;;;23.10;48.40;;;;;;5013428;28;20049;-64
2023/08/27 10:46:20;;;;;;;1.65;0.40;;;22.30;93.20;;;;;;5014476;28;20060;-64
2023/08/27 10:48:51;;;;;;;0.98;0.30;;;21.90;99.90;;;;;;5014066;28;20044;-63
2023/08/27 10:51:18;;;;;;;1.05;0.30;;;22.00;97.70;;;;;;4997435;28;20076;-64
2023/08/27 10:53:50;;;;;;;1.00;0.20;;;21.60;37.90;;;;;;5012942;28;20102;-64
2023/08/27 10:56:32;;;;;;;1.13;0.20;;;21.90;79.40;;;;;;5032124;28;20072;-64
2023/08/27 10:59:09;;;;;;;0.82;0.28;;;22.40;34.60;;;;;;5013788;28;20061;-62
2023/08/27 11:01:37;;;;;;;4.20;0.43;;;22.70;8.30;;;;;;5013664;28;20114;-63
2023/08/27 11:04:04;;;;;;;0.60;0.30;;;22.50;70.60;;;;;;5013722;28;20041;-64
2023/08/27 11:06:36;;;;;;;1.90;0.30;;;22.50;57.00;;;;;;4983793;28;20071;-63
2023/08/27 11:09:21;;;;;;;0.63;0.20;;;22.90;56.90;;;;;;5010302;28;20122;-64
2023/08/27 11:11:54;;;;;;;0.60;0.20;;;23.20;16.00;;;;;;4995604;28;20051;-63
2023/08/27 11:14:22;;;;;;;1.10;0.28;;;23.40;15.60;;;;;;5031367;28;20045;-63
2023/08/27 11:16:59;;;;;;;1.15;0.20;;;23.20;50.10;;;;;;5013677;28;20585;-64
2023/08/27 11:19:34;;;;;;;1.17;0.20;;;22.80;51.10;;;;;;5031037;28;20035;-64
2023/08/27 11:22:07;;;;;;;1.50;0.20;;;22.40;19.30;;;;;;5012611;28;20044;-63
2023/08/27 11:24:33;;;;;;;1.02;0.30;;;22.20;33.60;;;;;;4996251;28;20048;-65
2023/08/27 11:27:03;;;;;;;1.90;0.40;;;22.30;56.40;;;;;;5030873;28;20299;-62
2023/08/27 11:29:29;;;;;;;2.60;0.20;;;22.10;53.20;;;;;;5012208;28;20041;-63
2023/08/27 11:32:00;;;;;;;2.95;0.20;;;21.60;37.90;;;;;;5013003;28;20045;-63
2023/08/27 11:34:34;;;;;;;1.25;0.30;;;21.10;47.50;;;;;;4997409;28;20118;-63
2023/08/27 11:36:59;;;;;;;0.57;0.22;;;20.70;29.20;;;;;;4996602;28;20041;-64
2023/08/27 11:39:25;;;;;;;1.10;0.30;;;20.40;46.80;;;;;;4996442;28;20091;-64
2023/08/27 11:41:51;;;;;;;1.05;0.28;;;20.10;40.60;;;;;;5013331;28;20045;-63
2023/08/27 11:44:17;;;;;;;1.25;0.20;;;20.00;45.20;;;;;;5012472;28;20792;-63
2023/08/27 11:46:42;;;;;;;1.90;0.30;;;19.90;62.40;;;;;;5013121;28;20084;-62
2023/08/27 11:49:08;;;;;;;1.13;0.20;;;20.00;77.20;;;;;;5000218;28;20525;-64
2023/08/27 11:51:34;;;;;;;0.50;0.30;;;20.20;85.60;;;;;;5011859;28;20713;-63
2023/08/27 11:54:05;;;;;;;1.60;0.40;;;20.70;79.10;;;;;;5011710;28;20044;-63
2023/08/27 11:56:34;;;;;;;1.02;0.30;;;20.80;49.00;;;;;;5030222;28;20147;-63
2023/08/27 11:58:59;;;;;;;1.52;0.38;;;20.90;62.10;;;;;;5029885;28;20414;-63
2023/08/27 12:01:25;;;;;;;0.98;0.40;;;20.60;53.50;;;;;;5012098;28;20052;-63
2023/08/27 12:03:52;;;;;;;2.55;0.50;;;20.40;66.10;;;;;;5028415;28;20163;-64
2023/08/27 12:06:28;;;;;;;2.20;0.47;;;20.40;68.90;;;;;;4995394;28;20435;-64
2023/08/27 12:08:55;;;;;;;0.93;0.30;;;20.50;51.40;;;;;;5002216;28;20049;-63
2023/08/27 12:11:27;;;;;;;2.47;0.30;;;20.70;35.00;;;;;;5012107;28;20041;-64
2023/08/27 12:13:59;;;;;;;1.08;0.30;;;20.80;25.00;;;;;;5029349;28;20044;-65
2023/08/27 12:16:33;;;;;;;0.93;0.30;;;20.80;23.20;;;;;;5030939;28;20489;-64
2023/08/27 12:19:01;;;;;;;1.98;0.40;;;21.00;21.10;;;;;;5029572;28;20041;-64
2023/08/27 12:21:27;;;;;;;1.65;0.40;;;21.20;26.50;;;;;;5029776;28;20253;-64
2023/08/27 12:23:52;;;;;;;1.90;0.50;;;21.30;30.50;;;;;;4997856;28;20114;-65
2023/08/27 12:26:19;;;;;;;2.40;0.60;;;20.90;22.80;;;;;;5015222;28;20190;-64
2023/08/27 12:28:52;;;;;;;1.73;0.20;;;20.40;23.40;;;;;;5014122;28;20043;-63
2023/08/27 12:31:23;;;;;;;0.88;0.40;;;19.90;18.70;;;;;;5000108;28;20041;-64
2023/08/27 12:33:49;;;;;;;2.70;0.20;;;19.10;23.40;;;;;;5035558;28;20079;-64
2023/08/27 12:36:15;;;;;;;4.03;0.30;;;18.50;62.00;;;;;;5017965;28;20116;-65